createdAt,value
2022-10-10T00:01:24.400Z,9.28
2022-10-10T00:03:51.373Z,9.40
2022-10-10T00:06:18.119Z,9.50
2022-10-10T00:08:45.615Z,9.53
2022-10-10T00:11:13.989Z,9.61
2022-10-10T00:13:41.153Z,9.75
2022-10-10T00:16:11.394Z,10.04
2022-10-10T00:18:38.446Z,10.37
2022-10-10T00:21:05.751Z,10.37
2022-10-10T00:23:32.349Z,10.33
2022-10-10T00:25:59.020Z,10.24
2022-10-10T00:28:25.619Z,10.24
2022-10-10T00:30:52.337Z,10.21
2022-10-10T00:33:19.079Z,10.17
2022-10-10T00:35:45.570Z,10.10
2022-10-10T00:38:13.618Z,9.93
2022-10-10T00:40:52.092Z,9.82
2022-10-10T00:43:18.743Z,9.79
2022-10-10T00:45:47.039Z,9.79
2022-10-10T00:48:22.317Z,9.81
2022-10-10T00:50:55.498Z,9.76
2022-10-10T00:53:27.152Z,9.80
2022-10-10T00:55:54.818Z,9.83
2022-10-10T00:58:22.269Z,9.83
2022-10-10T01:00:48.767Z,9.87
2022-10-10T01:03:15.344Z,9.92
2022-10-10T01:05:42.733Z,10.06
2022-10-10T01:08:10.362Z,10.08
2022-10-10T01:10:56.453Z,10.12
2022-10-10T01:13:44.303Z,10.18
2022-10-10T01:16:33.957Z,10.19
2022-10-10T01:19:25.652Z,10.25
2022-10-10T01:22:34.033Z,10.25
2022-10-10T01:25:13.523Z,10.31
2022-10-10T01:27:51.693Z,10.42
2022-10-10T01:30:22.627Z,10.40
2022-10-10T01:32:54.229Z,10.32
2022-10-10T01:35:46.587Z,10.22
2022-10-10T01:38:41.802Z,10.22
2022-10-10T01:41:18.427Z,10.13
2022-10-10T01:43:44.972Z,10.11
2022-10-10T01:46:17.063Z,10.02
2022-10-10T01:48:45.290Z,10.13
2022-10-10T01:51:27.005Z,10.20
2022-10-10T01:54:25.803Z,10.17
2022-10-10T01:57:16.730Z,10.19
2022-10-10T02:00:04.833Z,10.19
2022-10-10T02:02:41.768Z,10.31
2022-10-10T02:05:17.428Z,10.42
2022-10-10T02:07:50.845Z,10.57
2022-10-10T02:10:24.666Z,10.67
2022-10-10T02:12:51.850Z,10.75
2022-10-10T02:15:23.051Z,10.86
2022-10-10T02:17:51.935Z,10.92
2022-10-10T02:20:23.876Z,10.95
2022-10-10T02:22:51.937Z,10.99
2022-10-10T02:25:24.060Z,11.03
2022-10-10T02:28:03.047Z,11.03
2022-10-10T02:30:30.255Z,11.06
2022-10-10T02:33:01.266Z,11.06
2022-10-10T02:35:32.660Z,11.07
2022-10-10T02:38:02.521Z,11.10
2022-10-10T02:40:32.112Z,11.06
2022-10-10T02:43:01.647Z,10.99
2022-10-10T02:45:29.652Z,10.93
2022-10-10T02:47:56.266Z,10.88
2022-10-10T02:50:23.060Z,10.81
2022-10-10T02:52:49.780Z,10.76
2022-10-10T02:55:16.478Z,10.67
2022-10-10T02:57:42.963Z,10.57
2022-10-10T03:00:10.025Z,10.45
2022-10-10T03:02:36.514Z,10.41
2022-10-10T03:05:05.633Z,10.35
2022-10-10T03:07:32.452Z,10.32
2022-10-10T03:09:58.888Z,10.26
2022-10-10T03:12:25.345Z,10.22
2022-10-10T03:14:51.873Z,10.19
2022-10-10T03:17:18.322Z,10.18
2022-10-10T03:19:44.836Z,10.16
2022-10-10T03:22:11.312Z,10.14
2022-10-10T03:24:37.800Z,10.11
2022-10-10T03:27:04.322Z,10.10
2022-10-10T03:29:30.977Z,10.07
2022-10-10T03:31:57.582Z,10.02
2022-10-10T03:34:24.126Z,9.95
2022-10-10T03:36:50.578Z,9.90
2022-10-10T03:39:17.118Z,9.89
2022-10-10T03:41:43.592Z,9.89
2022-10-10T03:44:10.197Z,9.80
2022-10-10T03:46:36.695Z,9.72
2022-10-10T03:49:03.582Z,9.68
2022-10-10T03:51:30.104Z,9.63
2022-10-10T03:53:56.555Z,9.61
2022-10-10T03:56:23.025Z,9.63
2022-10-10T03:58:49.562Z,9.63
2022-10-10T04:01:16.146Z,9.65
2022-10-10T04:03:42.682Z,9.66
2022-10-10T04:06:09.274Z,9.71
2022-10-10T04:08:35.794Z,9.81
2022-10-10T04:11:02.341Z,9.98
2022-10-10T04:13:28.963Z,10.05
2022-10-10T04:15:56.923Z,10.09
2022-10-10T04:18:24.123Z,10.12
2022-10-10T04:20:50.901Z,10.14
2022-10-10T04:23:17.780Z,10.19
2022-10-10T04:25:44.644Z,10.14
2022-10-10T04:28:12.549Z,10.11
2022-10-10T04:30:39.282Z,10.16
2022-10-10T04:33:06.436Z,10.16
2022-10-10T04:35:32.999Z,10.17
2022-10-10T04:37:59.532Z,10.20
2022-10-10T04:40:26.973Z,10.23
2022-10-10T04:42:55.512Z,10.27
2022-10-10T04:45:22.760Z,10.23
2022-10-10T04:47:49.232Z,10.04
2022-10-10T04:50:15.759Z,9.88
2022-10-10T04:52:42.299Z,9.84
2022-10-10T04:55:08.850Z,9.86
2022-10-10T04:57:35.344Z,9.88
2022-10-10T05:00:02.050Z,9.89
2022-10-10T05:02:28.545Z,9.90
2022-10-10T05:04:55.210Z,9.92
2022-10-10T05:07:21.837Z,9.78
2022-10-10T05:09:48.303Z,9.88
2022-10-10T05:12:14.879Z,9.90
2022-10-10T05:14:45.868Z,10.02
2022-10-10T05:17:14.572Z,10.08
2022-10-10T05:19:41.129Z,10.16
2022-10-10T05:22:10.887Z,10.30
2022-10-10T05:24:37.502Z,10.25
2022-10-10T05:27:04.045Z,10.28
2022-10-10T05:29:30.555Z,10.30
2022-10-10T05:31:57.034Z,10.37
2022-10-10T05:34:23.518Z,10.46
2022-10-10T05:36:50.024Z,10.55
2022-10-10T05:39:16.535Z,10.63
2022-10-10T05:41:43.082Z,10.64
2022-10-10T05:44:10.142Z,10.63
2022-10-10T05:46:36.593Z,10.59
2022-10-10T05:49:03.430Z,10.45
2022-10-10T05:51:29.912Z,10.48
2022-10-10T05:53:57.361Z,10.50
2022-10-10T05:56:23.951Z,10.50
2022-10-10T05:58:51.491Z,10.43
2022-10-10T06:01:18.463Z,10.28
2022-10-10T06:03:44.898Z,10.22
2022-10-10T06:06:11.396Z,10.20
2022-10-10T06:08:37.909Z,10.23
2022-10-10T06:11:08.111Z,10.09
2022-10-10T06:13:35.199Z,10.11
2022-10-10T06:16:01.693Z,10.11
2022-10-10T06:18:28.218Z,10.13
2022-10-10T06:20:54.799Z,10.08
2022-10-10T06:23:21.297Z,10.16
2022-10-10T06:25:47.827Z,10.23
2022-10-10T06:28:14.391Z,10.27
2022-10-10T06:30:42.800Z,10.13
2022-10-10T06:33:11.095Z,10.15
2022-10-10T06:35:48.051Z,10.03
2022-10-10T06:38:16.410Z,10.09
2022-10-10T06:40:43.323Z,10.06
2022-10-10T06:43:12.290Z,10.06
2022-10-10T06:45:40.732Z,10.14
2022-10-10T06:48:07.766Z,10.25
2022-10-10T06:50:35.243Z,10.31
2022-10-10T06:53:02.292Z,10.32
2022-10-10T06:55:28.806Z,10.31
2022-10-10T06:57:55.530Z,10.31
2022-10-10T07:00:22.040Z,10.35
2022-10-10T07:02:48.855Z,10.37
2022-10-10T07:05:17.717Z,10.36
2022-10-10T07:07:45.447Z,10.43
2022-10-10T07:10:14.988Z,10.47
2022-10-10T07:12:44.757Z,10.48
2022-10-10T07:15:11.955Z,10.44
2022-10-10T07:17:39.203Z,10.37
2022-10-10T07:20:06.169Z,10.37
2022-10-10T07:22:33.029Z,10.35
2022-10-10T07:24:59.590Z,10.35
2022-10-10T07:27:26.052Z,10.39
2022-10-10T07:29:52.595Z,10.40
2022-10-10T07:32:19.078Z,10.41
2022-10-10T07:34:45.555Z,10.41
2022-10-10T07:37:12.012Z,10.45
2022-10-10T07:39:38.512Z,10.46
2022-10-10T07:42:05.019Z,10.43
2022-10-10T07:44:34.593Z,10.43
2022-10-10T07:47:01.537Z,10.66
2022-10-10T07:49:28.189Z,10.66
2022-10-10T07:51:58.901Z,10.71
2022-10-10T07:54:28.365Z,10.73
2022-10-10T07:56:54.845Z,10.71
2022-10-10T07:59:21.724Z,10.79
2022-10-10T08:01:48.417Z,11.19
2022-10-10T08:04:14.936Z,11.58
2022-10-10T08:06:41.460Z,11.86
2022-10-10T08:09:08.157Z,12.09
2022-10-10T08:11:34.697Z,12.26
2022-10-10T08:14:01.228Z,12.44
2022-10-10T08:16:28.163Z,12.62
2022-10-10T08:18:54.615Z,12.74
2022-10-10T08:21:21.242Z,12.86
2022-10-10T08:23:48.178Z,12.98
2022-10-10T08:26:16.231Z,13.09
2022-10-10T08:28:43.210Z,13.07
2022-10-10T08:31:18.931Z,12.95
2022-10-10T08:33:46.552Z,12.89
2022-10-10T08:36:15.803Z,12.92
2022-10-10T08:38:42.643Z,13.02
2022-10-10T08:41:33.968Z,13.36
2022-10-10T08:44:04.787Z,13.78
2022-10-10T08:46:39.161Z,14.02
2022-10-10T08:49:19.199Z,14.24
2022-10-10T08:51:52.212Z,14.40
2022-10-10T08:54:22.469Z,14.58
2022-10-10T08:56:50.296Z,14.76
2022-10-10T08:59:25.704Z,14.91
2022-10-10T09:02:18.831Z,15.15
2022-10-10T09:04:46.766Z,15.26
2022-10-10T09:07:24.754Z,15.31
2022-10-10T09:10:29.106Z,15.36
2022-10-10T09:12:58.510Z,15.56
2022-10-10T09:15:32.304Z,15.66
2022-10-10T09:18:12.291Z,15.73
2022-10-10T09:20:55.776Z,15.88
2022-10-10T09:23:27.339Z,15.93
2022-10-10T09:26:01.126Z,15.98
2022-10-10T09:28:39.732Z,15.97
2022-10-10T09:31:38.128Z,16.14
2022-10-10T09:34:19.173Z,16.22
2022-10-10T09:36:47.799Z,16.22
2022-10-10T09:39:23.295Z,16.39
2022-10-10T09:41:59.976Z,16.49
2022-10-10T09:44:27.452Z,16.56
2022-10-10T09:46:55.205Z,16.64
2022-10-10T09:49:22.203Z,16.69
2022-10-10T09:51:49.670Z,16.73
2022-10-10T09:54:18.985Z,16.72
2022-10-10T09:56:52.013Z,16.64
2022-10-10T09:59:38.500Z,16.76
2022-10-10T10:02:23.451Z,16.83
2022-10-10T10:04:52.514Z,16.79
2022-10-10T10:07:20.786Z,16.74
2022-10-10T10:09:57.344Z,16.87
2022-10-10T10:12:27.697Z,17.10
2022-10-10T10:15:00.943Z,17.24
2022-10-10T10:17:27.772Z,17.25
2022-10-10T10:19:54.532Z,17.42
2022-10-10T10:22:31.834Z,17.49
2022-10-10T10:24:59.852Z,17.47
2022-10-10T10:27:28.152Z,17.48
2022-10-10T10:29:57.844Z,17.36
2022-10-10T10:32:39.267Z,17.16
2022-10-10T10:35:05.693Z,17.41
2022-10-10T10:38:01.935Z,17.56
2022-10-10T10:40:56.942Z,17.60
2022-10-10T10:43:44.857Z,17.76
2022-10-10T10:46:19.257Z,17.85
2022-10-10T10:48:46.921Z,17.86
2022-10-10T10:51:37.637Z,17.60
2022-10-10T10:54:29.260Z,17.59
2022-10-10T10:57:37.124Z,17.75
2022-10-10T11:00:47.223Z,17.75
2022-10-10T11:05:18.124Z,17.91
2022-10-10T11:07:19.866Z,17.93
2022-10-10T11:10:16.108Z,17.92
2022-10-10T11:13:10.381Z,17.88
2022-10-10T11:18:38.086Z,17.81
2022-10-10T11:21:11.532Z,18.07
2022-10-10T11:24:08.735Z,18.15
2022-10-10T11:26:44.009Z,18.16
2022-10-10T11:29:20.004Z,18.26
2022-10-10T11:32:13.745Z,18.13
2022-10-10T11:34:53.930Z,18.12
2022-10-10T11:37:26.877Z,18.11
2022-10-10T11:39:56.285Z,18.02
2022-10-10T11:42:29.782Z,17.99
2022-10-10T11:45:04.634Z,17.85
2022-10-10T11:47:35.157Z,18.03
2022-10-10T11:50:19.757Z,18.07
2022-10-10T11:53:02.199Z,18.06
2022-10-10T11:55:40.211Z,18.05
2022-10-10T11:58:06.654Z,18.09
2022-10-10T12:00:43.166Z,18.09
2022-10-10T12:03:10.443Z,18.12
2022-10-10T12:05:41.793Z,18.20
2022-10-10T12:08:35.142Z,18.21
2022-10-10T12:11:11.887Z,18.29
2022-10-10T12:13:46.410Z,18.39
2022-10-10T12:16:18.741Z,18.35
2022-10-10T12:18:51.122Z,18.33
2022-10-10T12:21:26.080Z,18.23
2022-10-10T12:24:13.827Z,18.22
2022-10-10T12:26:52.548Z,18.19
2022-10-10T12:29:46.754Z,18.18
2022-10-10T12:32:15.466Z,18.13
2022-10-10T12:34:47.785Z,18.14
2022-10-10T12:37:27.476Z,18.20
2022-10-10T12:40:06.079Z,18.18
2022-10-10T12:42:35.182Z,18.10
2022-10-10T12:45:01.679Z,18.10
2022-10-10T12:47:59.939Z,18.16
2022-10-10T12:50:27.804Z,18.11
2022-10-10T12:53:14.251Z,18.14
2022-10-10T12:55:44.957Z,18.11
2022-10-10T12:58:28.032Z,18.13
2022-10-10T13:01:01.878Z,18.06
2022-10-10T13:03:42.140Z,18.06
2022-10-10T13:06:15.293Z,18.06
2022-10-10T13:08:42.083Z,17.94
2022-10-10T13:11:13.972Z,17.91
2022-10-10T13:13:41.067Z,17.92
2022-10-10T13:16:09.842Z,17.92
2022-10-10T13:18:37.926Z,17.87
2022-10-10T13:21:07.347Z,17.79
2022-10-10T13:23:41.776Z,17.81
2022-10-10T13:26:22.265Z,17.79
2022-10-10T13:28:50.144Z,17.86
2022-10-10T13:31:17.577Z,17.82
2022-10-10T13:33:44.278Z,17.79
2022-10-10T13:36:20.840Z,17.79
2022-10-10T13:38:49.105Z,17.69
2022-10-10T13:41:18.831Z,17.69
2022-10-10T13:43:45.466Z,17.67
2022-10-10T13:46:22.358Z,17.60
2022-10-10T13:48:50.522Z,17.65
2022-10-10T13:51:17.302Z,17.66
2022-10-10T13:53:45.413Z,17.69
2022-10-10T13:56:23.129Z,17.62
2022-10-10T13:58:57.089Z,17.56
2022-10-10T14:01:35.893Z,17.50
2022-10-10T14:04:37.315Z,17.60
2022-10-10T14:07:07.793Z,17.62
2022-10-10T14:09:41.432Z,17.60
2022-10-10T14:12:34.169Z,17.58
2022-10-10T14:15:02.442Z,17.57
2022-10-10T14:17:29.567Z,17.48
2022-10-10T14:19:56.632Z,17.35
2022-10-10T14:22:23.433Z,17.32
2022-10-10T14:24:49.964Z,17.19
2022-10-10T14:27:23.722Z,17.18
2022-10-10T14:29:51.542Z,17.16
2022-10-10T14:32:19.253Z,17.19
2022-10-10T14:34:46.356Z,17.21
2022-10-10T14:37:23.628Z,17.16
2022-10-10T14:39:50.993Z,17.16
2022-10-10T14:42:19.866Z,17.12
2022-10-10T14:44:46.499Z,17.07
2022-10-10T14:47:17.809Z,17.04
2022-10-10T14:49:44.616Z,17.04
2022-10-10T14:52:11.242Z,16.99
2022-10-10T14:54:38.021Z,16.95
2022-10-10T14:57:07.378Z,16.93
2022-10-10T14:59:46.347Z,16.96
2022-10-10T15:02:22.127Z,16.94
2022-10-10T15:04:49.165Z,16.92
2022-10-10T15:07:16.491Z,16.93
2022-10-10T15:10:09.675Z,16.95
2022-10-10T15:12:32.569Z,17.00
2022-10-10T15:14:59.085Z,16.92
2022-10-10T15:17:27.054Z,16.86
2022-10-10T15:19:53.607Z,16.80
2022-10-10T15:22:20.139Z,16.79
2022-10-10T15:24:46.600Z,16.76
2022-10-10T15:27:13.377Z,16.73
2022-10-10T15:29:39.856Z,16.69
2022-10-10T15:32:06.626Z,16.66
2022-10-10T15:34:33.402Z,16.63
2022-10-10T15:36:59.910Z,16.59
2022-10-10T15:39:26.469Z,16.51
2022-10-10T15:41:52.950Z,16.53
2022-10-10T15:44:19.599Z,16.53
2022-10-10T15:46:46.277Z,16.43
2022-10-10T15:49:14.098Z,16.42
2022-10-10T15:51:45.521Z,16.34
2022-10-10T15:54:12.583Z,16.27
2022-10-10T15:56:39.505Z,16.23
2022-10-10T15:59:08.335Z,16.24
2022-10-10T16:01:35.412Z,16.22
2022-10-10T16:04:03.968Z,16.22
2022-10-10T16:06:30.684Z,16.18
2022-10-10T16:09:16.454Z,16.20
2022-10-10T16:11:43.658Z,16.18
2022-10-10T16:14:10.224Z,16.17
2022-10-10T16:16:37.291Z,16.08
2022-10-10T16:19:03.846Z,16.00
2022-10-10T16:21:33.305Z,15.99
2022-10-10T16:24:00.440Z,16.00
2022-10-10T16:26:30.681Z,15.97
2022-10-10T16:28:57.218Z,15.93
2022-10-10T16:31:25.038Z,15.86
2022-10-10T16:33:55.217Z,15.83
2022-10-10T16:36:27.110Z,15.81
2022-10-10T16:38:54.805Z,15.80
2022-10-10T16:41:45.925Z,15.74
2022-10-10T16:44:07.907Z,15.75
2022-10-10T16:46:34.584Z,15.77
2022-10-10T16:49:01.143Z,15.79
2022-10-10T16:51:29.763Z,15.80
2022-10-10T16:54:00.537Z,15.84
2022-10-10T16:56:27.423Z,15.84
2022-10-10T16:58:54.696Z,15.84
2022-10-10T17:01:23.330Z,15.87
2022-10-10T17:03:51.370Z,15.90
2022-10-10T17:06:21.061Z,15.90
2022-10-10T17:08:52.518Z,15.93
2022-10-10T17:11:21.697Z,15.91
2022-10-10T17:13:49.138Z,15.89
2022-10-10T17:19:09.698Z,15.89
2022-10-10T17:21:36.185Z,15.88
2022-10-10T17:24:02.922Z,15.86
2022-10-10T17:26:29.475Z,15.78
2022-10-10T17:28:57.537Z,15.75
2022-10-10T17:31:25.514Z,15.79
2022-10-10T17:33:54.197Z,15.77
2022-10-10T17:36:27.012Z,15.73
2022-10-10T17:38:56.040Z,15.76
2022-10-10T17:41:23.301Z,15.76
2022-10-10T17:43:49.836Z,15.76
2022-10-10T17:46:35.889Z,15.74
2022-10-10T17:49:08.426Z,15.78
2022-10-10T17:51:36.206Z,15.82
2022-10-10T17:54:04.335Z,15.91
2022-10-10T17:56:31.609Z,15.92
2022-10-10T17:59:01.385Z,15.89
2022-10-10T18:01:30.513Z,15.89
2022-10-10T18:03:57.497Z,15.86
2022-10-10T18:06:24.116Z,15.85
2022-10-10T18:08:52.320Z,15.88
2022-10-10T18:11:24.016Z,15.92
2022-10-10T18:13:51.279Z,15.92
2022-10-10T18:16:20.615Z,15.98
2022-10-10T18:18:51.425Z,16.01
2022-10-10T18:21:20.785Z,15.96
2022-10-10T18:23:47.656Z,15.97
2022-10-10T18:26:17.352Z,16.03
2022-10-10T18:28:44.075Z,16.00
2022-10-10T18:31:17.266Z,15.96
2022-10-10T18:33:44.869Z,15.96
2022-10-10T18:36:14.061Z,15.98
2022-10-10T18:38:41.081Z,15.95
2022-10-10T18:41:22.012Z,15.89
2022-10-10T18:43:49.562Z,15.88
2022-10-10T18:46:19.517Z,15.84
2022-10-10T18:48:51.311Z,15.85
2022-10-10T18:51:24.191Z,15.70
2022-10-10T18:53:54.772Z,15.63
2022-10-10T18:56:24.696Z,15.47
2022-10-10T18:58:54.863Z,15.26
2022-10-10T19:01:24.823Z,15.08
2022-10-10T19:03:52.844Z,14.96
2022-10-10T19:06:20.630Z,14.90
2022-10-10T19:08:47.159Z,14.88
2022-10-10T19:11:23.040Z,14.83
2022-10-10T19:13:50.194Z,14.78
2022-10-10T19:16:17.006Z,14.75
2022-10-10T19:18:44.216Z,14.72
2022-10-10T19:21:12.414Z,14.68
2022-10-10T19:23:40.456Z,14.65
2022-10-10T19:26:11.881Z,14.62
2022-10-10T19:28:39.206Z,14.62
2022-10-10T19:31:09.638Z,14.61
2022-10-10T19:33:40.046Z,14.65
2022-10-10T19:36:11.358Z,14.60
2022-10-10T19:38:41.042Z,14.60
2022-10-10T19:41:09.402Z,14.59
2022-10-10T19:43:36.682Z,14.59
2022-10-10T19:46:08.339Z,14.60
2022-10-10T19:48:36.936Z,14.58
2022-10-10T19:51:05.955Z,14.58
2022-10-10T19:53:36.490Z,14.56
2022-10-10T19:56:06.675Z,14.54
2022-10-10T19:58:34.088Z,14.52
2022-10-10T20:01:00.874Z,14.50
2022-10-10T20:03:27.420Z,14.53
2022-10-10T20:06:02.967Z,14.52
2022-10-10T20:08:29.987Z,14.54
2022-10-10T20:10:56.793Z,14.56
2022-10-10T20:13:23.293Z,14.55
2022-10-10T20:15:50.296Z,14.54
2022-10-10T20:18:18.772Z,14.58
2022-10-10T20:20:49.022Z,14.57
2022-10-10T20:23:17.726Z,14.52
2022-10-10T20:25:45.601Z,14.48
2022-10-10T20:28:18.009Z,14.49
2022-10-10T20:30:50.926Z,14.44
2022-10-10T20:33:21.097Z,14.37
2022-10-10T20:35:50.189Z,14.27
2022-10-10T20:38:20.251Z,14.11
2022-10-10T20:40:46.856Z,14.02
2022-10-10T20:43:14.695Z,13.88
2022-10-10T20:45:41.305Z,13.72
2022-10-10T20:48:08.220Z,13.49
2022-10-10T20:50:38.441Z,13.35
2022-10-10T20:53:06.337Z,13.31
2022-10-10T20:55:32.994Z,13.30
2022-10-10T20:57:59.616Z,13.27
2022-10-10T21:00:26.467Z,13.23
2022-10-10T21:02:56.012Z,13.21
2022-10-10T21:05:22.717Z,13.14
2022-10-10T21:07:52.060Z,13.15
2022-10-10T21:10:18.561Z,13.16
2022-10-10T21:12:45.087Z,13.16
2022-10-10T21:15:11.593Z,13.14
2022-10-10T21:17:38.234Z,13.05
2022-10-10T21:20:05.640Z,13.00
2022-10-10T21:22:35.179Z,12.93
2022-10-10T21:25:01.652Z,12.95
2022-10-10T21:27:28.158Z,13.00
2022-10-10T21:29:54.626Z,12.97
2022-10-10T21:32:21.105Z,12.95
2022-10-10T21:34:47.859Z,12.95
2022-10-10T21:37:14.347Z,12.91
2022-10-10T21:39:40.834Z,12.88
2022-10-10T21:42:07.314Z,12.89
2022-10-10T21:44:33.897Z,12.90
2022-10-10T21:47:00.399Z,12.87
2022-10-10T21:49:26.858Z,12.84
2022-10-10T21:51:53.333Z,12.83
2022-10-10T21:54:27.247Z,12.85
2022-10-10T21:56:53.741Z,12.88
2022-10-10T21:59:20.258Z,12.85
2022-10-10T22:01:46.766Z,12.75
2022-10-10T22:04:13.286Z,12.69
2022-10-10T22:06:42.794Z,12.59
2022-10-10T22:09:09.321Z,12.63
2022-10-10T22:11:35.872Z,12.67
2022-10-10T22:14:03.125Z,12.68
2022-10-10T22:16:30.456Z,12.61
2022-10-10T22:18:57.757Z,12.62
2022-10-10T22:21:30.045Z,12.53
2022-10-10T22:23:58.356Z,12.52
2022-10-10T22:26:25.466Z,12.48
2022-10-10T22:28:52.095Z,12.42
2022-10-10T22:31:19.041Z,12.43
2022-10-10T22:33:45.577Z,12.32
2022-10-10T22:36:13.043Z,12.32
2022-10-10T22:38:41.775Z,12.20
2022-10-10T22:41:09.356Z,12.10
2022-10-10T22:43:36.221Z,12.09
2022-10-10T22:46:03.553Z,12.05
2022-10-10T22:48:30.399Z,11.97
2022-10-10T22:51:23.466Z,11.91
2022-10-10T22:53:50.226Z,11.87
2022-10-10T22:56:20.063Z,11.79
2022-10-10T22:58:48.642Z,11.75
2022-10-10T23:01:18.565Z,11.66
2022-10-10T23:03:45.643Z,11.68
2022-10-10T23:06:12.268Z,11.65
2022-10-10T23:08:38.790Z,11.64
2022-10-10T23:11:05.670Z,11.62
2022-10-10T23:13:32.921Z,11.54
2022-10-10T23:15:59.389Z,11.53
2022-10-10T23:18:27.957Z,11.47
2022-10-10T23:20:54.399Z,11.52
2022-10-10T23:23:20.927Z,11.53
2022-10-10T23:25:48.174Z,11.55
2022-10-10T23:28:16.730Z,11.41
2022-10-10T23:30:45.611Z,11.33
2022-10-10T23:33:12.939Z,11.35
2022-10-10T23:35:39.461Z,11.29
2022-10-10T23:38:06.214Z,11.23
2022-10-10T23:40:36.407Z,11.19
2022-10-10T23:43:02.970Z,11.24
2022-10-10T23:45:29.438Z,11.26
2022-10-10T23:47:55.995Z,11.24
2022-10-10T23:50:22.534Z,11.22
2022-10-10T23:52:49.022Z,11.16
2022-10-10T23:55:15.578Z,11.26
2022-10-10T23:57:42.051Z,11.26
